createdAt,value
2023-01-06T00:01:23.973Z,3.07
2023-01-06T00:03:52.992Z,2.67
2023-01-06T00:06:27.458Z,3.17
2023-01-06T00:08:57.887Z,2.83
2023-01-06T00:11:26.547Z,3.20
2023-01-06T00:13:55.851Z,3.23
2023-01-06T00:16:24.522Z,3.20
2023-01-06T00:18:55.981Z,3.53
2023-01-06T00:21:24.569Z,3.90
2023-01-06T00:23:52.793Z,4.63
2023-01-06T00:26:22.456Z,4.47
2023-01-06T00:28:53.973Z,6.07
2023-01-06T00:31:22.592Z,5.00
2023-01-06T00:33:50.516Z,5.20
2023-01-06T00:36:18.807Z,5.77
2023-01-06T00:38:46.665Z,5.50
2023-01-06T00:41:44.614Z,6.60
2023-01-06T00:44:13.830Z,6.57
2023-01-06T00:46:42.070Z,7.57
2023-01-06T00:49:09.926Z,6.27
2023-01-06T00:51:39.309Z,6.73
2023-01-06T00:54:08.400Z,7.30
2023-01-06T00:56:38.382Z,7.93
2023-01-06T00:59:06.861Z,6.77
2023-01-06T01:01:36.956Z,9.20
2023-01-06T01:04:05.416Z,8.00
2023-01-06T01:06:33.663Z,7.60
2023-01-06T01:09:02.137Z,7.60
2023-01-06T01:11:48.414Z,7.70
2023-01-06T01:14:17.937Z,7.40
2023-01-06T01:16:47.242Z,8.50
2023-01-06T01:19:15.595Z,8.13
2023-01-06T01:21:43.911Z,8.77
2023-01-06T01:24:12.192Z,8.00
2023-01-06T01:26:41.225Z,8.03
2023-01-06T01:29:12.175Z,7.83
2023-01-06T01:31:40.318Z,9.27
2023-01-06T01:34:10.533Z,7.70
2023-01-06T01:36:38.761Z,6.73
2023-01-06T01:39:06.732Z,7.40
2023-01-06T01:41:34.607Z,7.80
2023-01-06T01:44:04.859Z,7.23
2023-01-06T01:46:44.452Z,7.70
2023-01-06T01:49:16.563Z,6.33
2023-01-06T01:51:49.048Z,7.00
2023-01-06T01:54:24.754Z,5.93
2023-01-06T01:56:57.892Z,5.70
2023-01-06T01:59:30.382Z,6.50
2023-01-06T02:01:58.567Z,5.73
2023-01-06T02:04:29.430Z,7.37
2023-01-06T02:06:59.130Z,6.23
2023-01-06T02:09:31.260Z,5.60
2023-01-06T02:11:59.540Z,5.93
2023-01-06T02:14:29.703Z,5.30
2023-01-06T02:17:19.827Z,5.60
2023-01-06T02:20:19.572Z,6.73
2023-01-06T02:23:09.163Z,5.80
2023-01-06T02:26:00.200Z,5.40
2023-01-06T02:28:58.662Z,6.47
2023-01-06T02:31:47.996Z,5.10
2023-01-06T02:34:26.537Z,6.67
2023-01-06T02:37:03.012Z,6.20
2023-01-06T02:39:41.984Z,6.10
2023-01-06T02:42:20.102Z,6.53
2023-01-06T02:44:56.371Z,6.20
2023-01-06T02:47:33.711Z,6.57
2023-01-06T02:50:10.555Z,5.23
2023-01-06T02:52:45.586Z,6.07
2023-01-06T02:55:22.770Z,6.00
2023-01-06T02:57:54.573Z,5.63
2023-01-06T03:00:28.339Z,6.33
2023-01-06T03:03:00.631Z,6.50
2023-01-06T03:05:30.141Z,5.03
2023-01-06T03:08:01.805Z,5.53
2023-01-06T03:10:30.917Z,4.90
2023-01-06T03:13:05.441Z,6.00
2023-01-06T03:15:34.331Z,6.13
2023-01-06T03:18:04.102Z,6.60
2023-01-06T03:20:32.134Z,5.63
2023-01-06T03:23:00.080Z,5.90
2023-01-06T03:25:27.996Z,6.50
2023-01-06T03:27:57.662Z,6.73
2023-01-06T03:30:28.825Z,5.70
2023-01-06T03:33:03.661Z,6.20
2023-01-06T03:35:47.031Z,5.30
2023-01-06T03:38:23.525Z,6.27
2023-01-06T03:40:56.271Z,6.80
2023-01-06T03:43:29.354Z,6.10
2023-01-06T03:46:06.633Z,6.57
2023-01-06T03:48:52.486Z,5.80
2023-01-06T03:51:36.481Z,6.83
2023-01-06T03:54:14.646Z,7.20
2023-01-06T03:56:48.026Z,8.07
2023-01-06T03:59:20.230Z,6.83
2023-01-06T04:01:51.708Z,6.87
2023-01-06T04:04:21.488Z,8.50
2023-01-06T04:06:51.230Z,7.73
2023-01-06T04:09:19.159Z,7.23
2023-01-06T04:12:04.594Z,7.70
2023-01-06T04:14:36.056Z,7.13
2023-01-06T04:17:04.189Z,6.93
2023-01-06T04:19:32.119Z,6.90
2023-01-06T04:22:01.621Z,6.40
2023-01-06T04:24:31.374Z,6.60
2023-01-06T04:26:59.293Z,6.80
2023-01-06T04:29:27.541Z,6.07
2023-01-06T04:31:57.146Z,6.17
2023-01-06T04:34:25.688Z,6.30
2023-01-06T04:36:54.765Z,6.57
2023-01-06T04:39:24.154Z,5.83
2023-01-06T04:41:52.021Z,6.03
2023-01-06T04:44:19.967Z,6.07
2023-01-06T04:46:48.130Z,5.77
2023-01-06T04:49:16.026Z,6.40
2023-01-06T04:51:43.976Z,6.60
2023-01-06T04:54:11.893Z,5.70
2023-01-06T04:56:41.108Z,6.30
2023-01-06T04:59:09.133Z,5.70
2023-01-06T05:01:37.654Z,6.23
2023-01-06T05:04:06.231Z,5.93
2023-01-06T05:06:34.794Z,4.83
2023-01-06T05:09:02.859Z,6.00
2023-01-06T05:11:30.819Z,5.90
2023-01-06T05:14:00.309Z,5.93
2023-01-06T05:16:30.582Z,5.80
2023-01-06T05:18:59.619Z,5.97
2023-01-06T05:21:32.407Z,6.10
2023-01-06T05:24:01.241Z,5.37
2023-01-06T05:26:29.353Z,6.00
2023-01-06T05:28:57.646Z,4.70
2023-01-06T05:31:26.944Z,4.40
2023-01-06T05:33:54.836Z,5.40
2023-01-06T05:36:22.724Z,4.80
2023-01-06T05:38:54.737Z,5.40
2023-01-06T05:41:23.204Z,5.60
2023-01-06T05:43:51.057Z,5.33
2023-01-06T05:46:18.901Z,5.83
2023-01-06T05:48:48.155Z,4.83
2023-01-06T05:51:17.315Z,4.90
2023-01-06T05:53:47.192Z,5.00
2023-01-06T05:56:17.475Z,5.50
2023-01-06T05:58:46.855Z,4.97
2023-01-06T06:01:19.961Z,4.97
2023-01-06T06:03:49.960Z,5.30
2023-01-06T06:06:19.161Z,4.90
2023-01-06T06:08:47.264Z,5.33
2023-01-06T06:11:17.583Z,6.20
2023-01-06T06:13:49.110Z,6.10
2023-01-06T06:16:18.525Z,5.27
2023-01-06T06:18:52.197Z,5.57
2023-01-06T06:21:22.694Z,6.10
2023-01-06T06:23:51.063Z,5.60
2023-01-06T06:26:18.899Z,5.87
2023-01-06T06:28:46.801Z,5.50
2023-01-06T06:31:16.739Z,4.97
2023-01-06T06:33:45.128Z,5.40
2023-01-06T06:36:15.984Z,4.97
2023-01-06T06:38:44.614Z,5.50
2023-01-06T06:41:13.040Z,6.53
2023-01-06T06:43:41.079Z,5.33
2023-01-06T06:46:09.818Z,5.83
2023-01-06T06:48:37.990Z,5.40
2023-01-06T06:51:07.903Z,4.67
2023-01-06T06:53:37.909Z,5.23
2023-01-06T06:56:07.582Z,5.20
2023-01-06T06:58:35.746Z,4.90
2023-01-06T07:01:05.673Z,5.47
2023-01-06T07:03:33.635Z,5.60
2023-01-06T07:06:03.142Z,5.77
2023-01-06T07:08:32.997Z,6.30
2023-01-06T07:11:02.733Z,5.67
2023-01-06T07:13:30.645Z,5.30
2023-01-06T07:15:58.570Z,5.50
2023-01-06T07:18:26.473Z,4.87
2023-01-06T07:20:54.557Z,4.40
2023-01-06T07:23:22.869Z,4.60
2023-01-06T07:25:54.096Z,3.90
2023-01-06T07:28:23.597Z,3.57
2023-01-06T07:30:51.619Z,4.07
2023-01-06T07:33:20.687Z,4.23
2023-01-06T07:35:49.097Z,4.70
2023-01-06T07:38:16.972Z,4.97
2023-01-06T07:40:44.850Z,3.90
2023-01-06T07:43:13.176Z,4.90
2023-01-06T07:45:42.335Z,4.20
2023-01-06T07:48:10.718Z,3.67
2023-01-06T07:50:38.571Z,3.10
2023-01-06T07:53:06.535Z,2.90
2023-01-06T07:55:34.367Z,3.43
2023-01-06T07:58:05.812Z,3.70
2023-01-06T08:00:34.093Z,3.07
2023-01-06T08:03:06.247Z,3.20
2023-01-06T08:05:37.506Z,2.93
2023-01-06T08:08:06.534Z,3.70
2023-01-06T08:10:34.455Z,3.43
2023-01-06T08:13:02.311Z,3.13
2023-01-06T08:15:30.328Z,3.73
2023-01-06T08:17:58.295Z,4.13
2023-01-06T08:20:27.978Z,3.50
2023-01-06T08:22:55.913Z,2.90
2023-01-06T08:25:23.742Z,2.50
2023-01-06T08:27:51.595Z,2.37
2023-01-06T08:30:21.647Z,2.30
2023-01-06T08:32:50.111Z,1.90
2023-01-06T08:35:18.119Z,1.80
2023-01-06T08:37:47.353Z,1.67
2023-01-06T08:40:15.512Z,1.90
2023-01-06T08:42:43.376Z,1.77
2023-01-06T08:45:13.036Z,1.70
2023-01-06T08:47:41.083Z,1.60
2023-01-06T08:50:09.389Z,1.50
2023-01-06T08:52:37.368Z,1.50
2023-01-06T08:55:07.105Z,1.03
2023-01-06T08:57:35.345Z,1.40
2023-01-06T09:00:04.674Z,1.33
2023-01-06T09:02:32.536Z,1.47
2023-01-06T09:05:00.403Z,1.10
2023-01-06T09:07:28.285Z,1.33
2023-01-06T09:09:56.303Z,1.30
2023-01-06T09:12:25.524Z,1.67
2023-01-06T09:14:53.518Z,1.53
2023-01-06T09:17:21.415Z,1.50
2023-01-06T09:19:49.243Z,1.53
2023-01-06T09:22:17.116Z,1.20
2023-01-06T09:24:44.988Z,1.87
2023-01-06T09:27:12.846Z,1.77
2023-01-06T09:29:42.066Z,1.80
2023-01-06T09:32:10.473Z,1.40
2023-01-06T09:34:38.293Z,1.40
2023-01-06T09:37:06.149Z,1.80
2023-01-06T09:39:33.989Z,2.00
2023-01-06T09:42:30.736Z,1.80
2023-01-06T09:45:04.034Z,1.37
2023-01-06T09:47:36.301Z,1.13
2023-01-06T09:50:09.094Z,1.40
2023-01-06T09:52:41.519Z,1.20
2023-01-06T09:55:16.329Z,1.00
2023-01-06T09:57:49.338Z,1.20
2023-01-06T10:00:32.163Z,1.17
2023-01-06T10:03:00.029Z,1.40
2023-01-06T10:05:38.837Z,1.30
2023-01-06T10:08:15.055Z,1.47
2023-01-06T10:10:49.230Z,1.50
2023-01-06T10:13:34.350Z,1.30
2023-01-06T10:16:11.045Z,1.10
2023-01-06T10:18:49.882Z,1.10
2023-01-06T10:21:26.527Z,1.20
2023-01-06T10:24:11.929Z,1.20
2023-01-06T10:26:44.590Z,1.17
2023-01-06T10:29:17.234Z,1.00
2023-01-06T10:31:48.815Z,1.20
2023-01-06T10:34:22.406Z,1.10
2023-01-06T10:36:55.756Z,0.70
2023-01-06T10:39:27.830Z,0.93
2023-01-06T10:42:23.161Z,0.90
2023-01-06T10:44:51.095Z,0.80
2023-01-06T10:47:25.439Z,0.90
2023-01-06T10:49:53.428Z,0.63
2023-01-06T10:52:22.917Z,0.70
2023-01-06T10:54:53.355Z,0.70
2023-01-06T10:57:26.733Z,0.83
2023-01-06T11:00:17.435Z,1.00
2023-01-06T11:02:49.376Z,1.00
2023-01-06T11:05:19.901Z,1.00
2023-01-06T11:07:57.508Z,1.20
2023-01-06T11:10:32.120Z,0.87
2023-01-06T11:13:02.662Z,0.70
2023-01-06T11:15:38.495Z,0.87
2023-01-06T11:18:20.059Z,0.83
2023-01-06T11:21:03.093Z,0.67
2023-01-06T11:23:31.127Z,0.90
2023-01-06T11:26:13.752Z,0.60
2023-01-06T11:28:42.445Z,1.00
2023-01-06T11:31:17.124Z,1.00
2023-01-06T11:33:51.844Z,0.83
2023-01-06T11:36:21.902Z,0.73
2023-01-06T11:38:53.056Z,0.90
2023-01-06T11:41:27.058Z,1.00
2023-01-06T11:43:58.047Z,0.80
2023-01-06T11:46:27.604Z,1.00
2023-01-06T11:49:02.769Z,0.80
2023-01-06T11:51:47.452Z,0.90
2023-01-06T11:54:36.565Z,1.00
2023-01-06T11:57:19.768Z,1.10
2023-01-06T12:00:27.737Z,1.17
2023-01-06T12:03:07.498Z,1.20
2023-01-06T12:05:47.898Z,1.10
2023-01-06T12:08:21.035Z,1.20
2023-01-06T12:10:54.244Z,1.20
2023-01-06T12:13:22.709Z,1.20
2023-01-06T12:15:58.195Z,1.27
2023-01-06T12:18:31.180Z,1.20
2023-01-06T12:21:02.425Z,1.47
2023-01-06T12:23:34.226Z,1.50
2023-01-06T12:26:04.736Z,1.07
2023-01-06T12:28:35.401Z,1.27
2023-01-06T12:31:09.374Z,1.27
2023-01-06T12:33:42.643Z,1.10
2023-01-06T12:36:19.119Z,1.50
2023-01-06T12:38:54.751Z,1.13
2023-01-06T12:41:29.255Z,1.50
2023-01-06T12:44:03.905Z,1.57
2023-01-06T12:46:37.549Z,1.50
2023-01-06T12:49:17.281Z,1.20
2023-01-06T12:51:51.451Z,1.27
2023-01-06T12:54:25.390Z,1.53
2023-01-06T12:57:13.310Z,1.83
2023-01-06T12:59:51.992Z,1.53
2023-01-06T13:02:36.485Z,1.67
2023-01-06T13:05:33.558Z,2.00
2023-01-06T13:08:18.936Z,1.70
2023-01-06T13:10:52.320Z,1.53
2023-01-06T13:13:35.908Z,1.50
2023-01-06T13:16:13.530Z,1.57
2023-01-06T13:18:47.833Z,1.77
2023-01-06T13:21:19.259Z,1.57
2023-01-06T13:24:20.135Z,1.20
2023-01-06T13:27:09.867Z,1.83
2023-01-06T13:29:54.060Z,1.40
2023-01-06T13:32:40.679Z,1.80
2023-01-06T13:35:45.831Z,1.50
2023-01-06T13:38:36.265Z,1.80
2023-01-06T13:41:11.924Z,1.83
2023-01-06T13:43:40.339Z,1.80
2023-01-06T13:46:11.915Z,1.83
2023-01-06T13:48:45.210Z,1.63
2023-01-06T13:51:16.925Z,2.13
2023-01-06T13:53:46.669Z,1.80
2023-01-06T13:56:26.960Z,1.83
2023-01-06T13:59:24.107Z,1.70
2023-01-06T14:01:53.575Z,1.37
2023-01-06T14:04:47.823Z,1.60
2023-01-06T14:07:30.943Z,1.10
2023-01-06T14:09:59.336Z,1.50
2023-01-06T14:12:29.874Z,1.50
2023-01-06T14:15:04.748Z,1.40
2023-01-06T14:17:40.262Z,1.20
2023-01-06T14:20:27.023Z,1.30
2023-01-06T14:23:04.030Z,1.47
2023-01-06T14:25:37.298Z,1.33
2023-01-06T14:28:25.012Z,1.00
2023-01-06T14:31:13.830Z,1.13
2023-01-06T14:33:45.071Z,1.10
2023-01-06T14:36:15.121Z,1.27
2023-01-06T14:38:45.767Z,1.10
2023-01-06T14:41:21.573Z,1.00
2023-01-06T14:43:55.522Z,1.60
2023-01-06T14:46:26.933Z,1.30
2023-01-06T14:49:02.108Z,1.00
2023-01-06T14:51:31.605Z,1.07
2023-01-06T14:54:04.258Z,0.93
2023-01-06T14:56:33.384Z,1.13
2023-01-06T14:59:12.862Z,1.20
2023-01-06T15:01:43.498Z,1.00
2023-01-06T15:04:23.635Z,1.60
2023-01-06T15:07:03.092Z,1.33
2023-01-06T15:09:30.963Z,1.07
2023-01-06T15:11:58.974Z,1.00
2023-01-06T15:14:31.010Z,1.50
2023-01-06T15:17:04.689Z,1.17
2023-01-06T15:19:33.578Z,1.30
2023-01-06T15:22:06.314Z,1.00
2023-01-06T15:24:38.353Z,1.80
2023-01-06T15:27:08.211Z,1.10
2023-01-06T15:29:37.532Z,1.40
2023-01-06T15:32:11.768Z,1.40
2023-01-06T15:34:45.787Z,1.10
2023-01-06T15:37:19.857Z,1.47
2023-01-06T15:39:48.320Z,1.50
2023-01-06T15:42:20.494Z,1.67
2023-01-06T15:44:59.954Z,1.77
2023-01-06T15:47:35.690Z,1.40
2023-01-06T15:50:07.306Z,1.20
2023-01-06T15:52:39.944Z,0.93
2023-01-06T15:55:20.178Z,1.10
2023-01-06T15:57:53.554Z,1.23
2023-01-06T16:00:25.140Z,1.30
2023-01-06T16:02:53.206Z,1.37
2023-01-06T16:05:38.996Z,1.00
2023-01-06T16:08:15.253Z,1.57
2023-01-06T16:10:44.003Z,1.33
2023-01-06T16:13:28.527Z,1.13
2023-01-06T16:16:02.184Z,1.40
2023-01-06T16:18:32.606Z,1.20
2023-01-06T16:21:01.747Z,1.13
2023-01-06T16:23:33.759Z,0.90
2023-01-06T16:26:12.465Z,1.50
2023-01-06T16:28:49.219Z,1.00
2023-01-06T16:31:30.619Z,0.90
2023-01-06T16:34:16.538Z,1.13
2023-01-06T16:36:44.535Z,1.50
2023-01-06T16:39:12.435Z,0.90
2023-01-06T16:42:02.505Z,0.93
2023-01-06T16:44:32.090Z,0.93
2023-01-06T16:47:03.102Z,1.10
2023-01-06T16:49:31.558Z,1.37
2023-01-06T16:52:00.260Z,1.13
2023-01-06T16:54:28.903Z,1.23
2023-01-06T16:56:56.767Z,0.90
2023-01-06T16:59:26.290Z,1.20
2023-01-06T17:01:54.272Z,1.23
2023-01-06T17:04:23.634Z,0.80
2023-01-06T17:06:51.531Z,1.30
2023-01-06T17:09:21.639Z,1.20
2023-01-06T17:11:51.083Z,1.00
2023-01-06T17:14:20.495Z,1.03
2023-01-06T17:16:48.816Z,1.00
2023-01-06T17:19:20.485Z,1.07
2023-01-06T17:21:52.649Z,1.03
2023-01-06T17:24:23.316Z,1.00
2023-01-06T17:26:54.029Z,1.23
2023-01-06T17:29:22.510Z,1.03
2023-01-06T17:31:52.756Z,1.13
2023-01-06T17:34:23.964Z,0.90
2023-01-06T17:36:56.402Z,1.10
2023-01-06T17:39:26.857Z,1.07
2023-01-06T17:42:01.766Z,1.30
2023-01-06T17:44:36.688Z,0.97
2023-01-06T17:47:11.216Z,1.00
2023-01-06T17:49:39.050Z,1.30
2023-01-06T17:52:19.949Z,1.17
2023-01-06T17:55:14.541Z,1.00
2023-01-06T17:57:46.255Z,1.00
2023-01-06T18:00:21.855Z,1.40
2023-01-06T18:02:55.315Z,0.87
2023-01-06T18:06:08.940Z,1.03
2023-01-06T18:08:39.523Z,1.50
2023-01-06T18:11:29.779Z,1.00
2023-01-06T18:14:07.872Z,1.00
2023-01-06T18:16:36.163Z,1.20
2023-01-06T18:19:28.867Z,1.10
2023-01-06T18:21:56.918Z,1.30
2023-01-06T18:24:31.310Z,1.07
2023-01-06T18:27:00.497Z,1.70
2023-01-06T18:29:36.392Z,1.47
2023-01-06T18:32:26.958Z,1.43
2023-01-06T18:34:56.170Z,1.40
2023-01-06T18:37:26.751Z,1.60
2023-01-06T18:39:59.262Z,1.50
2023-01-06T18:42:30.327Z,1.40
2023-01-06T18:45:18.248Z,1.50
2023-01-06T18:47:50.565Z,1.10
2023-01-06T18:50:26.651Z,1.23
2023-01-06T18:52:55.351Z,1.30
2023-01-06T18:55:34.089Z,1.20
2023-01-06T18:58:04.151Z,1.63
2023-01-06T19:00:40.876Z,1.10
2023-01-06T19:03:31.757Z,1.47
2023-01-06T19:06:18.560Z,1.30
2023-01-06T19:08:49.303Z,1.20
2023-01-06T19:11:20.789Z,1.30
2023-01-06T19:13:49.948Z,1.20
2023-01-06T19:16:31.690Z,1.33
2023-01-06T19:19:16.610Z,1.60
2023-01-06T19:21:44.799Z,1.50
2023-01-06T19:24:41.521Z,1.10
2023-01-06T19:27:34.274Z,1.13
2023-01-06T19:30:33.392Z,1.50
2023-01-06T19:33:27.054Z,1.40
2023-01-06T19:36:02.919Z,1.17
2023-01-06T19:38:35.049Z,1.30
2023-01-06T19:41:08.509Z,1.10
2023-01-06T19:43:38.090Z,1.30
2023-01-06T19:46:17.438Z,1.40
2023-01-06T19:48:45.311Z,1.10
2023-01-06T19:51:25.943Z,1.20
2023-01-06T19:53:57.506Z,1.10
2023-01-06T19:56:28.527Z,1.10
2023-01-06T19:59:00.007Z,0.90
2023-01-06T20:01:29.582Z,0.93
2023-01-06T20:03:58.102Z,1.33
2023-01-06T20:06:25.919Z,1.20
2023-01-06T20:08:54.250Z,1.00
2023-01-06T20:11:24.501Z,1.43
2023-01-06T20:13:52.626Z,1.17
2023-01-06T20:16:22.718Z,0.80
2023-01-06T20:18:50.765Z,1.20
2023-01-06T20:21:18.730Z,0.97
2023-01-06T20:23:46.730Z,1.00
2023-01-06T20:26:14.581Z,1.13
2023-01-06T20:28:42.399Z,1.10
2023-01-06T20:31:10.271Z,1.13
2023-01-06T20:33:39.499Z,1.30
2023-01-06T20:36:08.195Z,0.80
2023-01-06T20:38:36.063Z,1.10
2023-01-06T20:41:05.227Z,0.93
2023-01-06T20:43:33.079Z,0.87
2023-01-06T20:46:01.164Z,1.10
2023-01-06T20:48:29.062Z,1.00
2023-01-06T20:50:58.390Z,1.30
2023-01-06T20:53:26.453Z,0.73
2023-01-06T20:55:54.356Z,1.67
2023-01-06T20:58:22.245Z,1.10
2023-01-06T21:00:50.163Z,1.37
2023-01-06T21:03:18.030Z,1.13
2023-01-06T21:05:45.894Z,1.27
2023-01-06T21:08:15.284Z,0.97
2023-01-06T21:10:43.161Z,1.30
2023-01-06T21:13:11.040Z,1.07
2023-01-06T21:15:38.904Z,1.20
2023-01-06T21:18:06.871Z,1.33
2023-01-06T21:20:34.729Z,1.17
2023-01-06T21:23:02.547Z,1.50
2023-01-06T21:25:31.756Z,1.03
2023-01-06T21:27:59.725Z,1.20
2023-01-06T21:30:28.430Z,1.30
2023-01-06T21:32:56.425Z,1.10
2023-01-06T21:35:24.289Z,1.30
2023-01-06T21:37:52.314Z,1.40
2023-01-06T21:40:20.219Z,1.00
2023-01-06T21:43:06.935Z,1.23
2023-01-06T21:45:34.887Z,1.40
2023-01-06T21:48:02.889Z,1.30
2023-01-06T21:50:32.025Z,1.57
2023-01-06T21:53:00.315Z,4.40
2023-01-06T21:55:28.397Z,4.77
2023-01-06T21:57:57.751Z,2.70
2023-01-06T22:00:25.648Z,2.83
2023-01-06T22:02:54.722Z,1.50
2023-01-06T22:05:23.243Z,2.97
2023-01-06T22:07:53.774Z,1.50
2023-01-06T22:10:24.350Z,1.40
2023-01-06T22:12:54.290Z,1.43
2023-01-06T22:15:23.807Z,1.40
2023-01-06T22:17:55.822Z,1.50
2023-01-06T22:20:23.891Z,1.30
2023-01-06T22:22:51.748Z,1.47
2023-01-06T22:25:19.661Z,1.20
2023-01-06T22:27:47.543Z,1.37
2023-01-06T22:30:15.493Z,1.20
2023-01-06T22:32:46.065Z,1.20
2023-01-06T22:35:15.604Z,1.23
2023-01-06T22:37:43.910Z,1.20
2023-01-06T22:40:13.241Z,1.60
2023-01-06T22:42:41.257Z,1.03
2023-01-06T22:45:10.484Z,0.83
2023-01-06T22:47:38.437Z,0.90
2023-01-06T22:50:09.340Z,1.00
2023-01-06T22:52:37.859Z,1.37
2023-01-06T22:55:06.781Z,0.80
2023-01-06T22:57:34.751Z,0.63
2023-01-06T23:00:02.669Z,0.80
2023-01-06T23:02:30.687Z,0.73
2023-01-06T23:04:58.712Z,0.80
2023-01-06T23:07:27.927Z,0.70
2023-01-06T23:09:55.771Z,1.00
2023-01-06T23:12:23.785Z,0.70
2023-01-06T23:14:52.132Z,0.67
2023-01-06T23:17:20.077Z,1.03
2023-01-06T23:19:47.963Z,0.73
2023-01-06T23:22:15.891Z,0.80
2023-01-06T23:24:45.235Z,0.67
2023-01-06T23:27:13.590Z,1.00
2023-01-06T23:29:41.468Z,1.13
2023-01-06T23:32:09.369Z,1.60
2023-01-06T23:34:37.250Z,1.00
2023-01-06T23:37:05.140Z,0.90
2023-01-06T23:39:32.992Z,1.00
2023-01-06T23:42:04.258Z,0.70
2023-01-06T23:44:32.154Z,0.97
2023-01-06T23:47:00.013Z,0.73
2023-01-06T23:49:27.902Z,1.00
2023-01-06T23:51:55.866Z,0.80
2023-01-06T23:54:23.980Z,1.00
2023-01-06T23:56:51.866Z,1.17
2023-01-06T23:59:21.157Z,0.87
